sensor_id;sensor_type;location;lat;lon;timestamp;P1;durP1;ratioP1;P2;durP2;ratioP2
54408;SDS011;40315;48.620;9.828;2022-09-09T00:01:56;2.13;;;1.23;;
54408;SDS011;40315;48.620;9.828;2022-09-09T00:04:28;3.00;;;1.40;;
54408;SDS011;40315;48.620;9.828;2022-09-09T00:06:59;2.47;;;1.30;;
54408;SDS011;40315;48.620;9.828;2022-09-09T00:09:35;4.93;;;1.25;;
54408;SDS011;40315;48.620;9.828;2022-09-09T00:12:13;2.17;;;1.33;;
54408;SDS011;40315;48.620;9.828;2022-09-09T00:14:47;2.67;;;1.30;;
54408;SDS011;40315;48.620;9.828;2022-09-09T00:17:26;1.63;;;1.00;;
54408;SDS011;40315;48.620;9.828;2022-09-09T00:20:02;1.95;;;1.27;;
54408;SDS011;40315;48.620;9.828;2022-09-09T00:22:40;3.97;;;1.20;;
54408;SDS011;40315;48.620;9.828;2022-09-09T00:25:14;1.38;;;1.00;;
54408;SDS011;40315;48.620;9.828;2022-09-09T00:27:47;2.72;;;1.13;;
54408;SDS011;40315;48.620;9.828;2022-09-09T00:30:16;2.17;;;1.30;;
54408;SDS011;40315;48.620;9.828;2022-09-09T00:32:50;4.70;;;1.20;;
54408;SDS011;40315;48.620;9.828;2022-09-09T00:35:26;3.20;;;1.55;;
54408;SDS011;40315;48.620;9.828;2022-09-09T00:38:00;2.05;;;1.13;;
54408;SDS011;40315;48.620;9.828;2022-09-09T00:40:33;4.28;;;1.42;;
54408;SDS011;40315;48.620;9.828;2022-09-09T00:43:09;1.58;;;1.27;;
54408;SDS011;40315;48.620;9.828;2022-09-09T00:45:53;4.63;;;1.25;;
54408;SDS011;40315;48.620;9.828;2022-09-09T00:48:38;2.65;;;1.30;;
54408;SDS011;40315;48.620;9.828;2022-09-09T00:51:14;2.95;;;1.10;;
54408;SDS011;40315;48.620;9.828;2022-09-09T00:53:58;4.35;;;1.30;;
54408;SDS011;40315;48.620;9.828;2022-09-09T00:56:40;2.55;;;1.27;;
54408;SDS011;40315;48.620;9.828;2022-09-09T00:59:21;3.75;;;1.20;;
54408;SDS011;40315;48.620;9.828;2022-09-09T01:01:55;1.77;;;1.10;;
54408;SDS011;40315;48.620;9.828;2022-09-09T01:04:25;2.28;;;1.20;;
54408;SDS011;40315;48.620;9.828;2022-09-09T01:07:02;2.40;;;1.23;;
54408;SDS011;40315;48.620;9.828;2022-09-09T01:09:41;4.57;;;1.30;;
54408;SDS011;40315;48.620;9.828;2022-09-09T01:12:23;2.95;;;1.00;;
54408;SDS011;40315;48.620;9.828;2022-09-09T01:14:56;2.20;;;1.08;;
54408;SDS011;40315;48.620;9.828;2022-09-09T01:17:30;1.52;;;0.90;;
54408;SDS011;40315;48.620;9.828;2022-09-09T01:20:10;3.45;;;1.33;;
54408;SDS011;40315;48.620;9.828;2022-09-09T01:22:49;1.20;;;1.10;;
54408;SDS011;40315;48.620;9.828;2022-09-09T01:28:32;2.63;;;1.05;;
54408;SDS011;40315;48.620;9.828;2022-09-09T01:31:06;2.25;;;1.27;;
54408;SDS011;40315;48.620;9.828;2022-09-09T01:33:42;1.70;;;1.17;;
54408;SDS011;40315;48.620;9.828;2022-09-09T01:36:10;2.35;;;1.25;;
54408;SDS011;40315;48.620;9.828;2022-09-09T01:38:48;1.80;;;1.00;;
54408;SDS011;40315;48.620;9.828;2022-09-09T01:44:41;5.38;;;1.30;;
54408;SDS011;40315;48.620;9.828;2022-09-09T01:47:08;2.47;;;1.23;;
54408;SDS011;40315;48.620;9.828;2022-09-09T01:49:51;4.50;;;1.20;;
54408;SDS011;40315;48.620;9.828;2022-09-09T01:52:23;1.67;;;1.10;;
54408;SDS011;40315;48.620;9.828;2022-09-09T01:54:50;1.58;;;1.00;;
54408;SDS011;40315;48.620;9.828;2022-09-09T01:57:22;2.22;;;1.13;;
54408;SDS011;40315;48.620;9.828;2022-09-09T02:00:01;3.88;;;1.10;;
54408;SDS011;40315;48.620;9.828;2022-09-09T02:02:44;2.40;;;1.33;;
54408;SDS011;40315;48.620;9.828;2022-09-09T02:05:27;2.33;;;1.70;;
54408;SDS011;40315;48.620;9.828;2022-09-09T02:08:06;1.50;;;1.20;;
54408;SDS011;40315;48.620;9.828;2022-09-09T02:10:45;2.85;;;1.30;;
54408;SDS011;40315;48.620;9.828;2022-09-09T02:13:30;2.42;;;1.63;;
54408;SDS011;40315;48.620;9.828;2022-09-09T02:16:08;3.88;;;1.33;;
54408;SDS011;40315;48.620;9.828;2022-09-09T02:18:42;2.90;;;1.05;;
54408;SDS011;40315;48.620;9.828;2022-09-09T02:21:16;3.03;;;1.10;;
54408;SDS011;40315;48.620;9.828;2022-09-09T02:23:47;3.78;;;1.48;;
54408;SDS011;40315;48.620;9.828;2022-09-09T02:26:17;2.72;;;1.10;;
54408;SDS011;40315;48.620;9.828;2022-09-09T02:28:54;2.30;;;1.30;;
54408;SDS011;40315;48.620;9.828;2022-09-09T02:31:26;3.42;;;1.25;;
54408;SDS011;40315;48.620;9.828;2022-09-09T02:34:00;3.72;;;1.30;;
54408;SDS011;40315;48.620;9.828;2022-09-09T02:36:30;1.95;;;1.10;;
54408;SDS011;40315;48.620;9.828;2022-09-09T02:39:00;3.53;;;1.25;;
54408;SDS011;40315;48.620;9.828;2022-09-09T02:41:34;1.80;;;1.25;;
54408;SDS011;40315;48.620;9.828;2022-09-09T02:44:05;2.72;;;1.20;;
54408;SDS011;40315;48.620;9.828;2022-09-09T02:46:41;3.20;;;1.25;;
54408;SDS011;40315;48.620;9.828;2022-09-09T02:49:33;4.05;;;1.20;;
54408;SDS011;40315;48.620;9.828;2022-09-09T02:52:08;4.30;;;1.60;;
54408;SDS011;40315;48.620;9.828;2022-09-09T02:54:40;2.63;;;1.50;;
54408;SDS011;40315;48.620;9.828;2022-09-09T02:57:11;1.48;;;1.30;;
54408;SDS011;40315;48.620;9.828;2022-09-09T02:59:40;3.05;;;1.45;;
54408;SDS011;40315;48.620;9.828;2022-09-09T03:02:10;3.42;;;1.50;;
54408;SDS011;40315;48.620;9.828;2022-09-09T03:04:40;1.85;;;1.13;;
54408;SDS011;40315;48.620;9.828;2022-09-09T03:07:10;2.28;;;1.38;;
54408;SDS011;40315;48.620;9.828;2022-09-09T03:09:37;4.20;;;1.50;;
54408;SDS011;40315;48.620;9.828;2022-09-09T03:12:05;2.40;;;1.20;;
54408;SDS011;40315;48.620;9.828;2022-09-09T03:14:33;2.63;;;1.45;;
54408;SDS011;40315;48.620;9.828;2022-09-09T03:17:00;2.63;;;1.35;;
54408;SDS011;40315;48.620;9.828;2022-09-09T03:19:33;2.47;;;1.17;;
54408;SDS011;40315;48.620;9.828;2022-09-09T03:22:00;1.85;;;1.33;;
54408;SDS011;40315;48.620;9.828;2022-09-09T03:24:30;2.67;;;1.35;;
54408;SDS011;40315;48.620;9.828;2022-09-09T03:26:57;1.83;;;1.20;;
54408;SDS011;40315;48.620;9.828;2022-09-09T03:29:26;3.88;;;1.33;;
54408;SDS011;40315;48.620;9.828;2022-09-09T03:31:56;2.85;;;1.35;;
54408;SDS011;40315;48.620;9.828;2022-09-09T03:34:23;2.60;;;1.20;;
54408;SDS011;40315;48.620;9.828;2022-09-09T03:36:51;2.13;;;1.30;;
54408;SDS011;40315;48.620;9.828;2022-09-09T03:39:21;2.35;;;1.30;;
54408;SDS011;40315;48.620;9.828;2022-09-09T03:41:48;2.03;;;1.27;;
54408;SDS011;40315;48.620;9.828;2022-09-09T03:44:16;1.98;;;1.23;;
54408;SDS011;40315;48.620;9.828;2022-09-09T03:46:45;2.03;;;1.30;;
54408;SDS011;40315;48.620;9.828;2022-09-09T03:49:13;1.92;;;1.20;;
54408;SDS011;40315;48.620;9.828;2022-09-09T03:51:42;2.25;;;1.40;;
54408;SDS011;40315;48.620;9.828;2022-09-09T03:54:13;3.67;;;1.30;;
54408;SDS011;40315;48.620;9.828;2022-09-09T03:56:42;2.25;;;1.40;;
54408;SDS011;40315;48.620;9.828;2022-09-09T03:59:14;2.33;;;1.40;;
54408;SDS011;40315;48.620;9.828;2022-09-09T04:01:42;1.55;;;1.02;;
54408;SDS011;40315;48.620;9.828;2022-09-09T04:04:10;2.78;;;1.20;;
54408;SDS011;40315;48.620;9.828;2022-09-09T04:06:37;3.10;;;1.23;;
54408;SDS011;40315;48.620;9.828;2022-09-09T04:09:04;3.38;;;1.20;;
54408;SDS011;40315;48.620;9.828;2022-09-09T04:11:35;4.10;;;1.70;;
54408;SDS011;40315;48.620;9.828;2022-09-09T04:14:02;6.88;;;2.15;;
54408;SDS011;40315;48.620;9.828;2022-09-09T04:16:31;2.53;;;1.73;;
54408;SDS011;40315;48.620;9.828;2022-09-09T04:19:01;4.38;;;1.70;;
54408;SDS011;40315;48.620;9.828;2022-09-09T04:21:32;4.10;;;2.03;;
54408;SDS011;40315;48.620;9.828;2022-09-09T04:24:00;4.10;;;1.40;;
54408;SDS011;40315;48.620;9.828;2022-09-09T04:26:27;1.83;;;1.55;;
54408;SDS011;40315;48.620;9.828;2022-09-09T04:28:56;4.88;;;1.70;;
54408;SDS011;40315;48.620;9.828;2022-09-09T04:31:23;2.58;;;1.63;;
54408;SDS011;40315;48.620;9.828;2022-09-09T04:33:55;2.95;;;1.50;;
54408;SDS011;40315;48.620;9.828;2022-09-09T04:36:23;2.75;;;1.80;;
54408;SDS011;40315;48.620;9.828;2022-09-09T04:38:55;2.13;;;1.63;;
54408;SDS011;40315;48.620;9.828;2022-09-09T04:41:24;2.78;;;1.40;;
54408;SDS011;40315;48.620;9.828;2022-09-09T04:43:52;2.70;;;1.40;;
54408;SDS011;40315;48.620;9.828;2022-09-09T04:46:22;3.33;;;1.60;;
54408;SDS011;40315;48.620;9.828;2022-09-09T04:48:52;6.65;;;1.58;;
54408;SDS011;40315;48.620;9.828;2022-09-09T04:51:21;2.38;;;1.30;;
54408;SDS011;40315;48.620;9.828;2022-09-09T04:53:50;3.80;;;1.73;;
54408;SDS011;40315;48.620;9.828;2022-09-09T04:56:19;3.88;;;1.58;;
54408;SDS011;40315;48.620;9.828;2022-09-09T04:58:50;4.97;;;1.60;;
54408;SDS011;40315;48.620;9.828;2022-09-09T05:01:22;2.35;;;1.55;;
54408;SDS011;40315;48.620;9.828;2022-09-09T05:03:52;2.55;;;1.63;;
54408;SDS011;40315;48.620;9.828;2022-09-09T05:06:21;3.22;;;1.52;;
54408;SDS011;40315;48.620;9.828;2022-09-09T05:08:55;5.97;;;1.73;;
54408;SDS011;40315;48.620;9.828;2022-09-09T05:11:27;2.75;;;1.60;;
54408;SDS011;40315;48.620;9.828;2022-09-09T05:14:13;2.20;;;1.75;;
54408;SDS011;40315;48.620;9.828;2022-09-09T05:16:42;5.55;;;1.73;;
54408;SDS011;40315;48.620;9.828;2022-09-09T05:19:13;4.15;;;2.13;;
54408;SDS011;40315;48.620;9.828;2022-09-09T05:21:43;3.88;;;1.85;;
54408;SDS011;40315;48.620;9.828;2022-09-09T05:24:14;2.88;;;1.65;;
54408;SDS011;40315;48.620;9.828;2022-09-09T05:26:45;3.15;;;1.63;;
54408;SDS011;40315;48.620;9.828;2022-09-09T05:29:13;3.92;;;1.50;;
54408;SDS011;40315;48.620;9.828;2022-09-09T05:31:44;5.85;;;1.60;;
54408;SDS011;40315;48.620;9.828;2022-09-09T05:34:16;2.17;;;1.52;;
54408;SDS011;40315;48.620;9.828;2022-09-09T05:36:45;2.15;;;1.42;;
54408;SDS011;40315;48.620;9.828;2022-09-09T05:39:12;3.33;;;1.60;;
54408;SDS011;40315;48.620;9.828;2022-09-09T05:41:40;1.35;;;1.17;;
54408;SDS011;40315;48.620;9.828;2022-09-09T05:44:07;4.22;;;1.63;;
54408;SDS011;40315;48.620;9.828;2022-09-09T05:46:37;3.40;;;2.05;;
54408;SDS011;40315;48.620;9.828;2022-09-09T05:49:06;2.53;;;1.77;;
54408;SDS011;40315;48.620;9.828;2022-09-09T05:51:39;2.88;;;1.67;;
54408;SDS011;40315;48.620;9.828;2022-09-09T05:54:10;3.88;;;2.03;;
54408;SDS011;40315;48.620;9.828;2022-09-09T05:56:42;3.33;;;1.60;;
54408;SDS011;40315;48.620;9.828;2022-09-09T05:59:09;2.03;;;1.77;;
54408;SDS011;40315;48.620;9.828;2022-09-09T06:01:38;2.63;;;1.95;;
54408;SDS011;40315;48.620;9.828;2022-09-09T06:04:09;4.05;;;1.98;;
54408;SDS011;40315;48.620;9.828;2022-09-09T06:06:38;3.00;;;2.05;;
54408;SDS011;40315;48.620;9.828;2022-09-09T06:09:12;2.33;;;1.80;;
54408;SDS011;40315;48.620;9.828;2022-09-09T06:11:43;3.53;;;1.63;;
54408;SDS011;40315;48.620;9.828;2022-09-09T06:14:12;2.67;;;1.35;;
54408;SDS011;40315;48.620;9.828;2022-09-09T06:16:40;2.92;;;1.48;;
54408;SDS011;40315;48.620;9.828;2022-09-09T06:19:16;1.88;;;1.40;;
54408;SDS011;40315;48.620;9.828;2022-09-09T06:21:46;3.30;;;1.20;;
54408;SDS011;40315;48.620;9.828;2022-09-09T06:24:15;1.60;;;1.10;;
54408;SDS011;40315;48.620;9.828;2022-09-09T06:26:44;2.20;;;1.10;;
54408;SDS011;40315;48.620;9.828;2022-09-09T06:29:16;5.18;;;1.40;;
54408;SDS011;40315;48.620;9.828;2022-09-09T06:31:44;2.25;;;1.20;;
54408;SDS011;40315;48.620;9.828;2022-09-09T06:36:56;2.22;;;1.42;;
54408;SDS011;40315;48.620;9.828;2022-09-09T06:39:25;3.25;;;1.50;;
54408;SDS011;40315;48.620;9.828;2022-09-09T06:41:52;3.17;;;1.52;;
54408;SDS011;40315;48.620;9.828;2022-09-09T06:44:37;2.42;;;1.30;;
54408;SDS011;40315;48.620;9.828;2022-09-09T06:47:08;1.92;;;1.20;;
54408;SDS011;40315;48.620;9.828;2022-09-09T06:49:38;3.05;;;1.52;;
54408;SDS011;40315;48.620;9.828;2022-09-09T06:52:08;3.38;;;1.48;;
54408;SDS011;40315;48.620;9.828;2022-09-09T06:54:36;2.58;;;1.60;;
54408;SDS011;40315;48.620;9.828;2022-09-09T06:57:04;3.30;;;1.80;;
54408;SDS011;40315;48.620;9.828;2022-09-09T06:59:33;3.33;;;1.60;;
54408;SDS011;40315;48.620;9.828;2022-09-09T07:02:03;5.07;;;1.70;;
54408;SDS011;40315;48.620;9.828;2022-09-09T07:04:31;1.70;;;1.50;;
54408;SDS011;40315;48.620;9.828;2022-09-09T07:07:01;4.03;;;1.50;;
54408;SDS011;40315;48.620;9.828;2022-09-09T07:09:30;3.40;;;1.55;;
54408;SDS011;40315;48.620;9.828;2022-09-09T07:11:57;2.22;;;1.40;;
54408;SDS011;40315;48.620;9.828;2022-09-09T07:14:30;2.92;;;1.60;;
54408;SDS011;40315;48.620;9.828;2022-09-09T07:17:00;2.13;;;1.60;;
54408;SDS011;40315;48.620;9.828;2022-09-09T07:19:32;3.08;;;1.30;;
54408;SDS011;40315;48.620;9.828;2022-09-09T07:22:05;2.97;;;1.40;;
54408;SDS011;40315;48.620;9.828;2022-09-09T07:24:33;5.43;;;1.55;;
54408;SDS011;40315;48.620;9.828;2022-09-09T07:27:01;2.17;;;1.33;;
54408;SDS011;40315;48.620;9.828;2022-09-09T07:29:29;1.60;;;1.17;;
54408;SDS011;40315;48.620;9.828;2022-09-09T07:31:56;3.17;;;1.25;;
54408;SDS011;40315;48.620;9.828;2022-09-09T07:34:29;1.90;;;1.17;;
54408;SDS011;40315;48.620;9.828;2022-09-09T07:36:56;2.35;;;1.23;;
54408;SDS011;40315;48.620;9.828;2022-09-09T07:39:25;5.68;;;2.10;;
54408;SDS011;40315;48.620;9.828;2022-09-09T07:41:57;4.18;;;2.00;;
54408;SDS011;40315;48.620;9.828;2022-09-09T07:44:29;6.60;;;2.35;;
54408;SDS011;40315;48.620;9.828;2022-09-09T07:47:10;3.53;;;1.80;;
54408;SDS011;40315;48.620;9.828;2022-09-09T07:49:46;2.92;;;1.65;;
54408;SDS011;40315;48.620;9.828;2022-09-09T07:52:19;2.95;;;1.50;;
54408;SDS011;40315;48.620;9.828;2022-09-09T07:54:53;3.20;;;1.63;;
54408;SDS011;40315;48.620;9.828;2022-09-09T07:57:22;3.53;;;1.40;;
54408;SDS011;40315;48.620;9.828;2022-09-09T07:59:55;3.03;;;1.45;;
54408;SDS011;40315;48.620;9.828;2022-09-09T08:02:23;3.40;;;1.60;;
54408;SDS011;40315;48.620;9.828;2022-09-09T08:04:53;2.38;;;1.30;;
54408;SDS011;40315;48.620;9.828;2022-09-09T08:07:23;2.75;;;1.08;;
54408;SDS011;40315;48.620;9.828;2022-09-09T08:09:54;1.50;;;1.00;;
54408;SDS011;40315;48.620;9.828;2022-09-09T08:12:27;1.20;;;1.10;;
54408;SDS011;40315;48.620;9.828;2022-09-09T08:14:55;2.10;;;1.05;;
54408;SDS011;40315;48.620;9.828;2022-09-09T08:17:26;4.15;;;1.33;;
54408;SDS011;40315;48.620;9.828;2022-09-09T08:19:53;2.42;;;1.20;;
54408;SDS011;40315;48.620;9.828;2022-09-09T08:22:25;3.80;;;1.20;;
54408;SDS011;40315;48.620;9.828;2022-09-09T08:24:55;3.00;;;1.02;;
54408;SDS011;40315;48.620;9.828;2022-09-09T08:27:23;1.45;;;1.00;;
54408;SDS011;40315;48.620;9.828;2022-09-09T08:29:53;2.05;;;1.10;;
54408;SDS011;40315;48.620;9.828;2022-09-09T08:32:22;1.83;;;1.05;;
54408;SDS011;40315;48.620;9.828;2022-09-09T08:34:51;1.73;;;1.20;;
54408;SDS011;40315;48.620;9.828;2022-09-09T08:37:22;3.22;;;1.25;;
54408;SDS011;40315;48.620;9.828;2022-09-09T08:39:49;2.63;;;1.20;;
54408;SDS011;40315;48.620;9.828;2022-09-09T08:42:21;2.58;;;0.98;;
54408;SDS011;40315;48.620;9.828;2022-09-09T08:45:16;3.33;;;1.10;;
54408;SDS011;40315;48.620;9.828;2022-09-09T08:50:53;1.52;;;0.80;;
54408;SDS011;40315;48.620;9.828;2022-09-09T08:53:27;1.67;;;0.90;;
54408;SDS011;40315;48.620;9.828;2022-09-09T08:56:08;2.65;;;0.82;;
54408;SDS011;40315;48.620;9.828;2022-09-09T08:58:47;1.20;;;1.10;;
54408;SDS011;40315;48.620;9.828;2022-09-09T09:01:32;1.67;;;0.82;;
54408;SDS011;40315;48.620;9.828;2022-09-09T09:04:26;3.65;;;1.38;;
54408;SDS011;40315;48.620;9.828;2022-09-09T09:07:07;2.58;;;0.88;;
54408;SDS011;40315;48.620;9.828;2022-09-09T09:09:43;2.40;;;0.90;;
54408;SDS011;40315;48.620;9.828;2022-09-09T09:12:30;2.28;;;0.90;;
54408;SDS011;40315;48.620;9.828;2022-09-09T09:15:05;2.80;;;0.80;;
54408;SDS011;40315;48.620;9.828;2022-09-09T09:17:43;2.63;;;0.82;;
54408;SDS011;40315;48.620;9.828;2022-09-09T09:20:11;2.17;;;0.88;;
54408;SDS011;40315;48.620;9.828;2022-09-09T09:22:43;2.10;;;1.00;;
54408;SDS011;40315;48.620;9.828;2022-09-09T09:25:17;2.45;;;1.00;;
54408;SDS011;40315;48.620;9.828;2022-09-09T09:27:49;2.45;;;0.80;;
54408;SDS011;40315;48.620;9.828;2022-09-09T09:30:31;2.05;;;1.00;;
54408;SDS011;40315;48.620;9.828;2022-09-09T09:33:08;3.20;;;0.93;;
54408;SDS011;40315;48.620;9.828;2022-09-09T09:35:42;1.42;;;1.10;;
54408;SDS011;40315;48.620;9.828;2022-09-09T09:38:15;2.92;;;0.70;;
54408;SDS011;40315;48.620;9.828;2022-09-09T09:40:48;2.72;;;1.05;;
54408;SDS011;40315;48.620;9.828;2022-09-09T09:43:18;1.40;;;0.75;;
54408;SDS011;40315;48.620;9.828;2022-09-09T09:45:52;2.08;;;0.80;;
54408;SDS011;40315;48.620;9.828;2022-09-09T09:48:19;2.22;;;0.88;;
54408;SDS011;40315;48.620;9.828;2022-09-09T09:50:49;4.30;;;0.98;;
54408;SDS011;40315;48.620;9.828;2022-09-09T09:53:22;1.88;;;0.80;;
54408;SDS011;40315;48.620;9.828;2022-09-09T09:55:56;4.45;;;1.10;;
54408;SDS011;40315;48.620;9.828;2022-09-09T09:58:29;2.92;;;1.00;;
54408;SDS011;40315;48.620;9.828;2022-09-09T10:01:01;3.50;;;0.90;;
54408;SDS011;40315;48.620;9.828;2022-09-09T10:03:32;4.35;;;0.80;;
54408;SDS011;40315;48.620;9.828;2022-09-09T10:06:05;1.92;;;0.82;;
54408;SDS011;40315;48.620;9.828;2022-09-09T10:08:33;3.10;;;1.13;;
54408;SDS011;40315;48.620;9.828;2022-09-09T10:11:23;2.10;;;0.70;;
54408;SDS011;40315;48.620;9.828;2022-09-09T10:13:59;1.98;;;0.77;;
54408;SDS011;40315;48.620;9.828;2022-09-09T10:16:35;4.25;;;0.80;;
54408;SDS011;40315;48.620;9.828;2022-09-09T10:19:14;3.13;;;1.17;;
54408;SDS011;40315;48.620;9.828;2022-09-09T10:21:51;2.15;;;0.75;;
54408;SDS011;40315;48.620;9.828;2022-09-09T10:24:33;2.38;;;1.05;;
54408;SDS011;40315;48.620;9.828;2022-09-09T10:27:15;2.03;;;0.88;;
54408;SDS011;40315;48.620;9.828;2022-09-09T10:29:54;2.15;;;1.00;;
54408;SDS011;40315;48.620;9.828;2022-09-09T10:32:39;1.58;;;0.60;;
54408;SDS011;40315;48.620;9.828;2022-09-09T10:35:17;1.48;;;0.60;;
54408;SDS011;40315;48.620;9.828;2022-09-09T10:38:09;2.20;;;0.85;;
54408;SDS011;40315;48.620;9.828;2022-09-09T10:40:42;4.25;;;0.70;;
54408;SDS011;40315;48.620;9.828;2022-09-09T10:43:19;3.72;;;0.80;;
54408;SDS011;40315;48.620;9.828;2022-09-09T10:45:58;1.52;;;0.70;;
54408;SDS011;40315;48.620;9.828;2022-09-09T10:48:36;1.58;;;0.70;;
54408;SDS011;40315;48.620;9.828;2022-09-09T10:51:22;2.90;;;1.00;;
54408;SDS011;40315;48.620;9.828;2022-09-09T10:53:57;2.35;;;0.60;;
54408;SDS011;40315;48.620;9.828;2022-09-09T10:56:38;1.30;;;0.50;;
54408;SDS011;40315;48.620;9.828;2022-09-09T10:59:07;1.90;;;0.60;;
54408;SDS011;40315;48.620;9.828;2022-09-09T11:01:40;2.83;;;0.50;;
54408;SDS011;40315;48.620;9.828;2022-09-09T11:04:13;3.10;;;1.10;;
54408;SDS011;40315;48.620;9.828;2022-09-09T11:06:44;3.97;;;0.85;;
54408;SDS011;40315;48.620;9.828;2022-09-09T11:09:18;2.90;;;1.30;;
54408;SDS011;40315;48.620;9.828;2022-09-09T11:11:49;1.38;;;0.70;;
54408;SDS011;40315;48.620;9.828;2022-09-09T11:14:20;2.15;;;0.73;;
54408;SDS011;40315;48.620;9.828;2022-09-09T11:16:52;3.08;;;0.70;;
54408;SDS011;40315;48.620;9.828;2022-09-09T11:19:26;0.70;;;0.50;;
54408;SDS011;40315;48.620;9.828;2022-09-09T11:21:59;3.88;;;1.70;;
54408;SDS011;40315;48.620;9.828;2022-09-09T11:24:31;2.95;;;0.77;;
54408;SDS011;40315;48.620;9.828;2022-09-09T11:27:03;4.78;;;3.00;;
54408;SDS011;40315;48.620;9.828;2022-09-09T11:32:45;3.45;;;1.58;;
54408;SDS011;40315;48.620;9.828;2022-09-09T11:35:31;3.60;;;2.50;;
54408;SDS011;40315;48.620;9.828;2022-09-09T11:38:09;4.18;;;1.77;;
54408;SDS011;40315;48.620;9.828;2022-09-09T11:40:45;1.42;;;0.68;;
54408;SDS011;40315;48.620;9.828;2022-09-09T11:43:13;1.75;;;0.47;;
54408;SDS011;40315;48.620;9.828;2022-09-09T11:45:49;3.17;;;0.93;;
54408;SDS011;40315;48.620;9.828;2022-09-09T11:48:23;2.55;;;0.80;;
54408;SDS011;40315;48.620;9.828;2022-09-09T11:50:58;1.45;;;0.70;;
54408;SDS011;40315;48.620;9.828;2022-09-09T11:53:29;1.65;;;0.52;;
54408;SDS011;40315;48.620;9.828;2022-09-09T11:56:00;1.77;;;0.68;;
54408;SDS011;40315;48.620;9.828;2022-09-09T11:58:40;4.13;;;1.20;;
54408;SDS011;40315;48.620;9.828;2022-09-09T12:01:25;2.78;;;0.65;;
54408;SDS011;40315;48.620;9.828;2022-09-09T12:03:59;2.63;;;0.45;;
54408;SDS011;40315;48.620;9.828;2022-09-09T12:06:48;0.73;;;0.47;;
54408;SDS011;40315;48.620;9.828;2022-09-09T12:09:21;1.30;;;0.45;;
54408;SDS011;40315;48.620;9.828;2022-09-09T12:12:04;2.72;;;0.73;;
54408;SDS011;40315;48.620;9.828;2022-09-09T12:14:37;1.88;;;0.60;;
54408;SDS011;40315;48.620;9.828;2022-09-09T12:17:10;1.33;;;0.50;;
54408;SDS011;40315;48.620;9.828;2022-09-09T12:19:45;2.15;;;0.65;;
54408;SDS011;40315;48.620;9.828;2022-09-09T12:22:19;0.47;;;0.30;;
54408;SDS011;40315;48.620;9.828;2022-09-09T12:24:53;1.15;;;0.50;;
54408;SDS011;40315;48.620;9.828;2022-09-09T12:27:27;1.35;;;0.60;;
54408;SDS011;40315;48.620;9.828;2022-09-09T12:30:01;0.68;;;0.50;;
54408;SDS011;40315;48.620;9.828;2022-09-09T12:32:30;1.17;;;0.55;;
54408;SDS011;40315;48.620;9.828;2022-09-09T12:34:58;1.27;;;0.52;;
54408;SDS011;40315;48.620;9.828;2022-09-09T12:37:35;1.70;;;0.43;;
54408;SDS011;40315;48.620;9.828;2022-09-09T12:40:04;3.22;;;0.70;;
54408;SDS011;40315;48.620;9.828;2022-09-09T12:42:44;1.13;;;0.60;;
54408;SDS011;40315;48.620;9.828;2022-09-09T12:45:15;3.53;;;0.75;;
54408;SDS011;40315;48.620;9.828;2022-09-09T12:47:44;2.05;;;0.77;;
54408;SDS011;40315;48.620;9.828;2022-09-09T12:50:16;1.33;;;0.70;;
54408;SDS011;40315;48.620;9.828;2022-09-09T12:52:46;2.83;;;0.60;;
54408;SDS011;40315;48.620;9.828;2022-09-09T12:55:16;1.80;;;0.63;;
54408;SDS011;40315;48.620;9.828;2022-09-09T12:57:47;1.63;;;0.50;;
54408;SDS011;40315;48.620;9.828;2022-09-09T13:00:17;1.85;;;0.50;;
54408;SDS011;40315;48.620;9.828;2022-09-09T13:02:49;1.27;;;0.40;;
54408;SDS011;40315;48.620;9.828;2022-09-09T13:05:18;1.77;;;0.50;;
54408;SDS011;40315;48.620;9.828;2022-09-09T13:07:48;0.85;;;0.50;;
54408;SDS011;40315;48.620;9.828;2022-09-09T13:10:19;2.28;;;0.60;;
54408;SDS011;40315;48.620;9.828;2022-09-09T13:12:51;1.38;;;0.50;;
54408;SDS011;40315;48.620;9.828;2022-09-09T13:15:20;1.92;;;0.70;;
54408;SDS011;40315;48.620;9.828;2022-09-09T13:17:52;3.05;;;0.60;;
54408;SDS011;40315;48.620;9.828;2022-09-09T13:20:22;3.50;;;0.57;;
54408;SDS011;40315;48.620;9.828;2022-09-09T13:22:52;3.25;;;0.63;;
54408;SDS011;40315;48.620;9.828;2022-09-09T13:25:22;1.83;;;0.68;;
54408;SDS011;40315;48.620;9.828;2022-09-09T13:27:53;2.70;;;0.43;;
54408;SDS011;40315;48.620;9.828;2022-09-09T13:30:23;0.68;;;0.40;;
54408;SDS011;40315;48.620;9.828;2022-09-09T13:33:20;2.35;;;0.60;;
54408;SDS011;40315;48.620;9.828;2022-09-09T13:35:49;1.75;;;0.52;;
54408;SDS011;40315;48.620;9.828;2022-09-09T13:38:27;2.03;;;0.50;;
54408;SDS011;40315;48.620;9.828;2022-09-09T13:40:57;1.63;;;0.40;;
54408;SDS011;40315;48.620;9.828;2022-09-09T13:43:30;0.90;;;0.35;;
54408;SDS011;40315;48.620;9.828;2022-09-09T13:46:00;2.35;;;0.60;;
54408;SDS011;40315;48.620;9.828;2022-09-09T13:48:29;1.63;;;0.50;;
54408;SDS011;40315;48.620;9.828;2022-09-09T13:50:57;2.75;;;0.50;;
54408;SDS011;40315;48.620;9.828;2022-09-09T13:53:28;1.35;;;0.40;;
54408;SDS011;40315;48.620;9.828;2022-09-09T13:56:00;1.38;;;0.60;;
54408;SDS011;40315;48.620;9.828;2022-09-09T13:58:27;2.53;;;0.50;;
54408;SDS011;40315;48.620;9.828;2022-09-09T14:00:55;0.90;;;0.60;;
54408;SDS011;40315;48.620;9.828;2022-09-09T14:03:22;1.17;;;0.50;;
54408;SDS011;40315;48.620;9.828;2022-09-09T14:05:49;1.23;;;0.50;;
54408;SDS011;40315;48.620;9.828;2022-09-09T14:08:21;1.50;;;0.57;;
54408;SDS011;40315;48.620;9.828;2022-09-09T14:10:52;2.53;;;0.50;;
54408;SDS011;40315;48.620;9.828;2022-09-09T14:13:23;2.55;;;0.50;;
54408;SDS011;40315;48.620;9.828;2022-09-09T14:15:50;3.20;;;0.50;;
54408;SDS011;40315;48.620;9.828;2022-09-09T14:18:18;1.27;;;0.50;;
54408;SDS011;40315;48.620;9.828;2022-09-09T14:20:47;2.22;;;0.40;;
54408;SDS011;40315;48.620;9.828;2022-09-09T14:23:15;3.75;;;0.65;;
54408;SDS011;40315;48.620;9.828;2022-09-09T14:25:46;1.20;;;0.45;;
54408;SDS011;40315;48.620;9.828;2022-09-09T14:28:15;3.00;;;0.63;;
54408;SDS011;40315;48.620;9.828;2022-09-09T14:30:43;2.47;;;0.60;;
54408;SDS011;40315;48.620;9.828;2022-09-09T14:33:11;2.42;;;0.70;;
54408;SDS011;40315;48.620;9.828;2022-09-09T14:35:40;2.50;;;0.60;;
54408;SDS011;40315;48.620;9.828;2022-09-09T14:38:08;1.85;;;0.50;;
54408;SDS011;40315;48.620;9.828;2022-09-09T14:40:36;1.63;;;0.60;;
54408;SDS011;40315;48.620;9.828;2022-09-09T14:43:04;2.72;;;0.88;;
54408;SDS011;40315;48.620;9.828;2022-09-09T14:45:35;1.83;;;0.60;;
54408;SDS011;40315;48.620;9.828;2022-09-09T14:48:03;2.67;;;0.82;;
54408;SDS011;40315;48.620;9.828;2022-09-09T14:50:30;1.90;;;0.50;;
54408;SDS011;40315;48.620;9.828;2022-09-09T14:52:57;3.08;;;0.50;;
54408;SDS011;40315;48.620;9.828;2022-09-09T14:55:26;2.40;;;0.60;;
54408;SDS011;40315;48.620;9.828;2022-09-09T14:57:54;3.80;;;0.38;;
54408;SDS011;40315;48.620;9.828;2022-09-09T15:00:21;1.58;;;0.70;;
54408;SDS011;40315;48.620;9.828;2022-09-09T15:02:54;1.10;;;0.45;;
54408;SDS011;40315;48.620;9.828;2022-09-09T15:05:21;0.75;;;0.52;;
54408;SDS011;40315;48.620;9.828;2022-09-09T15:07:49;0.93;;;0.30;;
54408;SDS011;40315;48.620;9.828;2022-09-09T15:10:16;3.05;;;0.68;;
54408;SDS011;40315;48.620;9.828;2022-09-09T15:12:46;1.55;;;0.47;;
54408;SDS011;40315;48.620;9.828;2022-09-09T15:15:13;2.45;;;0.50;;
54408;SDS011;40315;48.620;9.828;2022-09-09T15:17:40;1.08;;;0.47;;
54408;SDS011;40315;48.620;9.828;2022-09-09T15:20:09;1.10;;;0.50;;
54408;SDS011;40315;48.620;9.828;2022-09-09T15:22:36;1.60;;;0.60;;
54408;SDS011;40315;48.620;9.828;2022-09-09T15:25:04;1.60;;;0.75;;
54408;SDS011;40315;48.620;9.828;2022-09-09T15:27:32;1.52;;;0.40;;
54408;SDS011;40315;48.620;9.828;2022-09-09T15:30:00;1.02;;;0.40;;
54408;SDS011;40315;48.620;9.828;2022-09-09T15:32:27;1.17;;;0.50;;
54408;SDS011;40315;48.620;9.828;2022-09-09T15:34:55;0.93;;;0.50;;